熊本空港の過去48時間の天気

熊本空港 (Kumamoto)

現在時刻: 9/19 08:32 JST (9/18 23:32 UTC) 以下の時間は現地時間です。

過去48時間のMETAR気象情報
時間 風向 風速(m/s) 視程 気温(℃) 湿度(%) 気圧(hPa) 天気現象
19 08:00 静穏 0 10km以上 22 78 1014
19 07:00 不定 1 10km以上 19 88 1014
19 06:10 不定 1 10km以上 17 94 1013
RJFT 182300Z 00000KT 9999 FEW025 22/18 Q1014
RJFT 182200Z VRB02KT 9999 FEW020 19/17 Q1014
RJFT 182110Z VRB01KT 9999 FEW015 17/16 Q1013 RMK 1CU015 A2994